createdAt,value
2016-07-16T00:00:48.132Z,22.02
2016-07-16T00:01:48.160Z,21.94
2016-07-16T00:02:48.155Z,21.94
2016-07-16T00:03:48.152Z,21.93
2016-07-16T00:04:48.177Z,21.92
2016-07-16T00:05:48.174Z,21.85
2016-07-16T00:06:48.188Z,21.92
2016-07-16T00:07:48.214Z,21.94
2016-07-16T00:08:48.205Z,21.97
2016-07-16T00:09:48.206Z,21.94
2016-07-16T00:10:48.213Z,21.86
2016-07-16T00:11:48.224Z,21.92
2016-07-16T00:12:48.249Z,21.92
2016-07-16T00:13:48.275Z,21.89
2016-07-16T00:14:48.241Z,21.93
2016-07-16T00:15:48.273Z,21.94
2016-07-16T00:16:48.290Z,21.92
2016-07-16T00:17:48.288Z,21.9
2016-07-16T00:18:48.283Z,21.89
2016-07-16T00:19:48.288Z,21.89
2016-07-16T00:20:48.290Z,21.9
2016-07-16T00:21:48.307Z,21.9
2016-07-16T00:22:48.301Z,21.92
2016-07-16T00:23:48.306Z,21.93
2016-07-16T00:24:48.316Z,21.9
2016-07-16T00:25:48.333Z,21.85
2016-07-16T00:26:48.344Z,21.92
2016-07-16T00:27:48.337Z,21.94
2016-07-16T00:28:48.342Z,21.86
2016-07-16T00:29:48.381Z,21.86
2016-07-16T00:30:48.376Z,21.9
2016-07-16T00:31:49.055Z,21.92
2016-07-16T00:32:48.370Z,21.86
2016-07-16T00:33:48.417Z,21.85
2016-07-16T00:34:48.402Z,21.8
2016-07-16T00:35:48.408Z,21.82
2016-07-16T00:36:48.417Z,21.85
2016-07-16T00:37:48.428Z,21.8
2016-07-16T00:38:48.432Z,21.86
2016-07-16T00:39:48.435Z,21.83
2016-07-16T00:40:48.486Z,21.85
2016-07-16T00:41:48.488Z,21.83
2016-07-16T00:42:48.445Z,21.78
2016-07-16T00:43:48.459Z,21.92
2016-07-16T00:44:48.497Z,21.78
2016-07-16T00:45:48.501Z,21.86
2016-07-16T00:46:48.519Z,21.78
2016-07-16T00:47:48.516Z,21.76
2016-07-16T00:48:48.506Z,21.8
2016-07-16T00:49:48.536Z,21.76
2016-07-16T00:50:48.532Z,21.78
2016-07-16T00:51:48.545Z,21.8
2016-07-16T00:52:48.549Z,21.74
2016-07-16T00:53:48.544Z,21.77
2016-07-16T00:54:48.562Z,21.77
2016-07-16T00:55:48.601Z,21.77
2016-07-16T00:56:48.560Z,21.76
2016-07-16T00:57:48.576Z,21.77
2016-07-16T00:58:48.619Z,21.77
2016-07-16T00:59:48.619Z,21.82
2016-07-16T01:00:48.623Z,21.74
2016-07-16T01:01:48.617Z,21.78
2016-07-16T01:02:48.626Z,21.78
2016-07-16T01:03:48.638Z,21.77
2016-07-16T01:04:48.630Z,21.82
2016-07-16T01:05:48.639Z,21.78
2016-07-16T01:06:48.650Z,21.83
2016-07-16T01:07:48.652Z,21.77
2016-07-16T01:08:48.672Z,21.82
2016-07-16T01:09:48.656Z,21.77
2016-07-16T01:10:48.695Z,21.77
2016-07-16T01:11:48.693Z,21.83
2016-07-16T01:12:48.687Z,21.74
2016-07-16T01:13:48.696Z,21.83
2016-07-16T01:14:48.718Z,21.8
2016-07-16T01:15:48.702Z,21.77
2016-07-16T01:16:48.770Z,21.76
2016-07-16T01:17:48.741Z,21.76
2016-07-16T01:18:48.756Z,21.78
2016-07-16T01:19:48.732Z,21.73
2016-07-16T01:20:48.763Z,21.73
2016-07-16T01:21:48.783Z,21.76
2016-07-16T01:22:48.815Z,21.83
2016-07-16T01:23:48.793Z,21.77
2016-07-16T01:24:48.803Z,21.76
2016-07-16T01:25:48.811Z,21.8
2016-07-16T01:26:48.819Z,21.73
2016-07-16T01:27:48.823Z,21.73
2016-07-16T01:28:48.819Z,21.71
2016-07-16T01:29:48.841Z,21.71
2016-07-16T01:30:48.843Z,21.77
2016-07-16T01:31:48.838Z,21.73
2016-07-16T01:32:48.848Z,21.77
2016-07-16T01:33:48.869Z,21.77
2016-07-16T01:34:48.876Z,21.76
2016-07-16T01:35:48.885Z,21.74
2016-07-16T01:36:48.883Z,21.74
2016-07-16T01:37:48.874Z,21.67
2016-07-16T01:38:48.883Z,21.74
2016-07-16T01:39:48.908Z,21.77
2016-07-16T01:40:48.904Z,21.73
2016-07-16T01:41:48.940Z,21.67
2016-07-16T01:42:48.913Z,21.68
2016-07-16T01:43:48.923Z,21.64
2016-07-16T01:44:48.943Z,21.68
2016-07-16T01:45:48.952Z,21.62
2016-07-16T01:46:48.986Z,21.64
2016-07-16T01:47:48.976Z,21.66
2016-07-16T01:48:48.990Z,21.7
2016-07-16T01:49:48.977Z,21.68
2016-07-16T01:50:48.990Z,21.66
2016-07-16T01:51:49.016Z,21.66
2016-07-16T01:52:49.025Z,21.64
2016-07-16T01:53:49.013Z,21.64
2016-07-16T01:54:49.021Z,21.73
2016-07-16T01:55:49.030Z,21.66
2016-07-16T01:56:49.039Z,21.66
2016-07-16T01:57:49.043Z,21.66
2016-07-16T01:58:49.052Z,21.62
2016-07-16T01:59:49.047Z,21.66
2016-07-16T02:00:49.053Z,21.66
2016-07-16T02:01:49.080Z,21.66
2016-07-16T02:02:49.078Z,21.62
2016-07-16T02:03:49.095Z,21.68
2016-07-16T02:04:49.098Z,21.66
2016-07-16T02:05:49.099Z,21.68
2016-07-16T02:06:49.137Z,21.68
2016-07-16T02:07:49.124Z,21.66
2016-07-16T02:08:49.129Z,21.68
2016-07-16T02:09:49.136Z,21.64
2016-07-16T02:10:49.143Z,21.64
2016-07-16T02:11:49.161Z,21.68
2016-07-16T02:12:49.159Z,21.7
2016-07-16T02:13:49.154Z,21.67
2016-07-16T02:14:49.158Z,21.66
2016-07-16T02:15:49.167Z,21.66
2016-07-16T02:16:49.179Z,21.68
2016-07-16T02:17:49.196Z,21.68
2016-07-16T02:18:49.211Z,21.7
2016-07-16T02:19:49.205Z,21.76
2016-07-16T02:20:49.218Z,21.68
2016-07-16T02:21:49.224Z,21.66
2016-07-16T02:22:49.254Z,21.7
2016-07-16T02:23:49.250Z,21.7
2016-07-16T02:24:49.254Z,21.68
2016-07-16T02:25:49.253Z,21.74
2016-07-16T02:26:49.263Z,21.67
2016-07-16T02:27:49.284Z,21.68
2016-07-16T02:28:49.273Z,21.62
2016-07-16T02:29:49.263Z,21.68
2016-07-16T02:30:49.316Z,21.59
2016-07-16T02:31:49.295Z,21.67
2016-07-16T02:32:49.316Z,21.62
2016-07-16T02:33:49.322Z,21.71
2016-07-16T02:34:49.314Z,21.64
2016-07-16T02:35:49.355Z,21.64
2016-07-16T02:36:49.341Z,21.66
2016-07-16T02:37:49.371Z,21.62
2016-07-16T02:38:49.375Z,21.61
2016-07-16T02:39:49.362Z,21.67
2016-07-16T02:40:49.360Z,21.62
2016-07-16T02:41:49.375Z,21.61
2016-07-16T02:42:49.402Z,21.66
2016-07-16T02:43:49.377Z,21.62
2016-07-16T02:44:49.417Z,21.67
2016-07-16T02:45:49.406Z,21.68
2016-07-16T02:46:49.403Z,21.56
2016-07-16T02:47:49.409Z,21.68
2016-07-16T02:48:49.451Z,21.68
2016-07-16T02:49:49.424Z,21.68
2016-07-16T02:50:49.430Z,21.59
2016-07-16T02:51:49.442Z,21.62
2016-07-16T02:52:49.482Z,21.68
2016-07-16T02:53:49.468Z,21.56
2016-07-16T02:54:49.492Z,21.62
2016-07-16T02:55:49.508Z,21.62
2016-07-16T02:56:49.503Z,21.61
2016-07-16T02:57:49.500Z,21.66
2016-07-16T02:58:49.497Z,21.62
2016-07-16T02:59:49.516Z,21.64
2016-07-16T03:00:49.509Z,21.66
2016-07-16T03:01:49.525Z,21.56
2016-07-16T03:02:49.534Z,21.59
2016-07-16T03:03:49.549Z,21.61
2016-07-16T03:04:49.537Z,21.64
2016-07-16T03:05:49.544Z,21.64
2016-07-16T03:06:49.586Z,21.64
2016-07-16T03:07:49.573Z,21.62
2016-07-16T03:08:49.565Z,21.62
2016-07-16T03:09:49.574Z,21.62
2016-07-16T03:10:49.612Z,21.67
2016-07-16T03:11:49.618Z,21.66
2016-07-16T03:12:49.625Z,21.66
2016-07-16T03:13:49.620Z,21.55
2016-07-16T03:14:49.616Z,21.62
2016-07-16T03:15:49.635Z,21.61
2016-07-16T03:16:49.628Z,21.61
2016-07-16T03:17:49.660Z,21.58
2016-07-16T03:18:49.667Z,21.64
2016-07-16T03:19:49.687Z,21.59
2016-07-16T03:20:49.668Z,21.7
2016-07-16T03:21:49.665Z,21.64
2016-07-16T03:22:49.685Z,21.64
2016-07-16T03:23:49.716Z,21.62
2016-07-16T03:24:49.688Z,21.66
2016-07-16T03:25:49.710Z,21.53
2016-07-16T03:26:49.725Z,21.62
2016-07-16T03:27:49.734Z,21.64
2016-07-16T03:28:49.742Z,21.66
2016-07-16T03:29:49.743Z,21.59
2016-07-16T03:30:49.747Z,21.64
2016-07-16T03:31:49.761Z,21.59
2016-07-16T03:32:49.772Z,21.61
2016-07-16T03:33:49.782Z,21.62
2016-07-16T03:34:49.784Z,21.58
2016-07-16T03:35:49.795Z,21.64
2016-07-16T03:36:49.815Z,21.59
2016-07-16T03:37:49.798Z,21.64
2016-07-16T03:38:49.824Z,21.64
2016-07-16T03:39:49.828Z,21.61
2016-07-16T03:40:49.849Z,21.62
2016-07-16T03:41:49.855Z,21.62
2016-07-16T03:42:49.849Z,21.62
2016-07-16T03:43:49.840Z,21.59
2016-07-16T03:44:50.579Z,21.68
2016-07-16T03:45:49.885Z,21.59
2016-07-16T03:46:49.872Z,21.62
2016-07-16T03:47:49.874Z,21.62
2016-07-16T03:48:49.901Z,21.7
2016-07-16T03:49:49.898Z,21.62
2016-07-16T03:50:49.916Z,21.64
2016-07-16T03:51:49.901Z,21.61
2016-07-16T03:52:49.904Z,21.68
2016-07-16T03:53:49.923Z,21.61
2016-07-16T03:54:49.923Z,21.62
2016-07-16T03:55:49.962Z,21.58
2016-07-16T03:56:49.965Z,21.66
2016-07-16T03:57:49.953Z,21.62
2016-07-16T03:58:49.969Z,21.61
2016-07-16T03:59:49.968Z,21.59
2016-07-16T04:00:49.955Z,21.68
2016-07-16T04:01:49.992Z,21.66
2016-07-16T04:02:49.998Z,21.67
2016-07-16T04:03:49.993Z,21.62
2016-07-16T04:04:50.019Z,21.62
2016-07-16T04:05:50.008Z,21.66
2016-07-16T04:06:50.029Z,21.62
2016-07-16T04:07:50.028Z,21.58
2016-07-16T04:08:50.043Z,21.61
2016-07-16T04:09:50.047Z,21.67
2016-07-16T04:10:50.068Z,21.64
2016-07-16T04:11:50.072Z,21.66
2016-07-16T04:12:50.107Z,21.58
2016-07-16T04:13:50.079Z,21.64
2016-07-16T04:14:50.091Z,21.61
2016-07-16T04:15:50.089Z,21.62
2016-07-16T04:16:50.122Z,21.67
2016-07-16T04:17:50.098Z,21.62
2016-07-16T04:18:50.864Z,21.68
2016-07-16T04:19:50.143Z,21.62
2016-07-16T04:20:50.147Z,21.61
2016-07-16T04:21:50.155Z,21.56
2016-07-16T04:22:50.141Z,21.64
2016-07-16T04:23:50.150Z,21.66
2016-07-16T04:24:50.143Z,21.64
2016-07-16T04:25:50.151Z,21.66
2016-07-16T04:26:50.173Z,21.64
2016-07-16T04:27:50.180Z,21.56
2016-07-16T04:28:50.179Z,21.59
2016-07-16T04:29:50.199Z,21.62
2016-07-16T04:30:50.211Z,21.61
2016-07-16T04:31:50.211Z,21.59
2016-07-16T04:32:50.242Z,21.66
2016-07-16T04:33:50.229Z,21.66
2016-07-16T04:34:50.219Z,21.66
2016-07-16T04:35:50.249Z,21.64
2016-07-16T04:36:50.265Z,21.67
2016-07-16T04:37:50.247Z,21.66
2016-07-16T04:38:50.278Z,21.62
2016-07-16T04:39:50.259Z,21.62
2016-07-16T04:40:50.276Z,21.62
2016-07-16T04:41:50.281Z,21.66
2016-07-16T04:42:50.293Z,21.59
2016-07-16T04:43:50.291Z,21.67
2016-07-16T04:44:50.337Z,21.59
2016-07-16T04:45:50.337Z,21.62
2016-07-16T04:46:50.320Z,21.61
2016-07-16T04:47:50.331Z,21.59
2016-07-16T04:48:50.350Z,21.64
2016-07-16T04:49:50.334Z,21.64
2016-07-16T04:50:50.347Z,21.66
2016-07-16T04:51:50.362Z,21.64
2016-07-16T04:52:50.387Z,21.66
2016-07-16T04:53:50.399Z,21.67
2016-07-16T04:54:50.386Z,21.66
2016-07-16T04:55:50.385Z,21.64
2016-07-16T04:56:50.407Z,21.68
2016-07-16T04:57:50.407Z,21.59
2016-07-16T04:58:50.461Z,21.62
2016-07-16T04:59:50.426Z,21.62
2016-07-16T05:00:50.439Z,21.61
2016-07-16T05:01:50.451Z,21.58
2016-07-16T05:02:50.459Z,21.68
2016-07-16T05:03:50.443Z,21.66
2016-07-16T05:04:50.481Z,21.66
2016-07-16T05:05:50.475Z,21.66
2016-07-16T05:06:50.481Z,21.62
2016-07-16T05:07:50.476Z,21.67
2016-07-16T05:08:50.508Z,21.66
2016-07-16T05:09:50.493Z,21.67
2016-07-16T05:10:50.527Z,21.59
2016-07-16T05:11:50.518Z,21.67
2016-07-16T05:12:50.513Z,21.68
2016-07-16T05:13:50.554Z,21.59
2016-07-16T05:14:50.536Z,21.62
2016-07-16T05:15:50.535Z,21.64
2016-07-16T05:16:50.564Z,21.66
2016-07-16T05:17:50.563Z,21.58
2016-07-16T05:18:50.573Z,21.62
2016-07-16T05:19:50.564Z,21.61
2016-07-16T05:20:50.585Z,21.59
2016-07-16T05:21:50.591Z,21.68
2016-07-16T05:22:50.602Z,21.71
2016-07-16T05:23:50.611Z,21.7
2016-07-16T05:24:50.623Z,21.67
2016-07-16T05:25:50.631Z,21.64
2016-07-16T05:26:50.626Z,21.64
2016-07-16T05:27:50.642Z,21.68
2016-07-16T05:28:50.647Z,21.59
2016-07-16T05:29:50.666Z,21.68
2016-07-16T05:30:50.663Z,21.62
2016-07-16T05:31:50.667Z,21.64
2016-07-16T05:32:50.677Z,21.68
2016-07-16T05:33:50.691Z,21.59
2016-07-16T05:34:50.711Z,21.66
2016-07-16T05:35:50.688Z,21.68
2016-07-16T05:36:50.713Z,21.66
2016-07-16T05:37:50.737Z,21.67
2016-07-16T05:38:50.717Z,21.7
2016-07-16T05:39:50.741Z,21.68
2016-07-16T05:40:50.732Z,21.7
2016-07-16T05:41:50.768Z,21.66
2016-07-16T05:42:50.764Z,21.76
2016-07-16T05:43:50.789Z,21.71
2016-07-16T05:44:50.776Z,21.64
2016-07-16T05:45:50.779Z,21.66
2016-07-16T05:46:50.789Z,21.66
2016-07-16T05:47:50.773Z,21.66
2016-07-16T05:48:50.790Z,21.68
2016-07-16T05:49:50.818Z,21.67
2016-07-16T05:50:50.807Z,21.68
2016-07-16T05:51:50.837Z,21.66
2016-07-16T05:52:50.831Z,21.67
2016-07-16T05:53:50.829Z,21.68
2016-07-16T05:54:50.829Z,21.7
2016-07-16T05:55:50.831Z,21.64
2016-07-16T05:56:50.875Z,21.67
2016-07-16T05:57:50.854Z,21.66
2016-07-16T05:58:51.067Z,21.77
2016-07-16T05:59:50.866Z,21.78
2016-07-16T06:00:50.879Z,21.74
2016-07-16T06:01:50.926Z,21.67
2016-07-16T06:02:50.903Z,21.76
2016-07-16T06:03:50.915Z,21.77
2016-07-16T06:04:50.905Z,21.83
2016-07-16T06:05:50.919Z,21.77
2016-07-16T06:06:50.942Z,21.76
2016-07-16T06:07:50.959Z,21.7
2016-07-16T06:08:50.963Z,21.8
2016-07-16T06:09:50.948Z,21.78
2016-07-16T06:10:50.967Z,21.76
2016-07-16T06:11:50.976Z,21.76
2016-07-16T06:12:50.989Z,21.76
2016-07-16T06:13:50.966Z,21.76
2016-07-16T06:14:50.998Z,21.76
2016-07-16T06:15:50.983Z,21.76
2016-07-16T06:16:51.009Z,21.74
2016-07-16T06:17:51.001Z,21.78
2016-07-16T06:18:51.044Z,21.74
2016-07-16T06:19:51.028Z,21.77
2016-07-16T06:20:51.040Z,21.77
2016-07-16T06:21:51.061Z,21.8
2016-07-16T06:22:51.065Z,21.77
2016-07-16T06:23:51.075Z,21.76
2016-07-16T06:24:51.059Z,21.77
2016-07-16T06:25:51.071Z,21.83
2016-07-16T06:26:51.090Z,21.76
2016-07-16T06:27:51.104Z,21.82
2016-07-16T06:28:51.104Z,21.77
2016-07-16T06:29:51.104Z,21.86
2016-07-16T06:30:51.120Z,21.83
2016-07-16T06:31:51.144Z,21.89
2016-07-16T06:32:51.130Z,21.85
2016-07-16T06:33:51.147Z,21.86
2016-07-16T06:34:51.162Z,21.83
2016-07-16T06:35:51.141Z,21.86
2016-07-16T06:36:51.161Z,21.89
2016-07-16T06:37:51.192Z,21.96
2016-07-16T06:38:51.176Z,21.94
2016-07-16T06:39:51.166Z,21.96
2016-07-16T06:40:51.192Z,21.93
2016-07-16T06:41:51.190Z,21.94
2016-07-16T06:42:51.220Z,21.93
2016-07-16T06:43:51.242Z,22
2016-07-16T06:44:51.247Z,21.96
2016-07-16T06:45:51.230Z,21.94
2016-07-16T06:46:51.244Z,21.92
2016-07-16T06:47:51.269Z,21.96
2016-07-16T06:48:51.251Z,21.97
2016-07-16T06:49:51.263Z,21.9
2016-07-16T06:50:51.292Z,21.99
2016-07-16T06:51:51.284Z,22.02
2016-07-16T06:52:51.991Z,22.02
2016-07-16T06:53:51.294Z,22.02
2016-07-16T06:54:51.310Z,21.99
2016-07-16T06:55:51.323Z,22.08
2016-07-16T06:56:51.312Z,22.05
2016-07-16T06:57:51.347Z,22.04
2016-07-16T06:58:51.422Z,22.11
2016-07-16T06:59:51.343Z,22.04
2016-07-16T07:00:51.348Z,22.05
2016-07-16T07:01:51.341Z,22.12
2016-07-16T07:02:51.368Z,22.12
2016-07-16T07:03:51.402Z,22.09
2016-07-16T07:04:51.395Z,22.12
2016-07-16T07:05:51.381Z,22.14
2016-07-16T07:06:51.398Z,22.12
2016-07-16T07:07:51.420Z,22.14
2016-07-16T07:08:51.431Z,22.14
2016-07-16T07:09:51.420Z,22.05
2016-07-16T07:10:51.434Z,22.11
2016-07-16T07:11:51.457Z,22.09
2016-07-16T07:12:51.461Z,22.14
2016-07-16T07:13:51.451Z,22.18
2016-07-16T07:14:52.152Z,22.14
2016-07-16T07:15:51.474Z,22.22
2016-07-16T07:16:51.482Z,22.2
2016-07-16T07:17:51.514Z,22.18
2016-07-16T07:18:51.490Z,22.2
2016-07-16T07:19:51.514Z,22.22
2016-07-16T07:20:51.490Z,22.22
2016-07-16T07:21:51.504Z,22.23
2016-07-16T07:22:51.510Z,22.16
2016-07-16T07:23:51.526Z,22.23
2016-07-16T07:24:51.571Z,22.16
2016-07-16T07:25:51.568Z,22.26
2016-07-16T07:26:51.550Z,22.2
2016-07-16T07:27:51.555Z,22.2
2016-07-16T07:28:51.564Z,22.23
2016-07-16T07:29:51.587Z,22.2
2016-07-16T07:30:51.574Z,22.12
2016-07-16T07:31:51.596Z,22.16
2016-07-16T07:32:51.590Z,22.23
2016-07-16T07:33:51.633Z,22.15
2016-07-16T07:34:51.636Z,22.15
2016-07-16T07:35:51.623Z,22.23
2016-07-16T07:36:51.650Z,22.14
2016-07-16T07:37:51.649Z,22.24
2016-07-16T07:38:51.660Z,22.24
2016-07-16T07:39:51.673Z,22.23
2016-07-16T07:40:51.678Z,22.27
2016-07-16T07:41:51.658Z,22.3
2016-07-16T07:42:51.688Z,22.29
2016-07-16T07:43:51.704Z,22.3
2016-07-16T07:44:51.692Z,22.33
2016-07-16T07:45:51.710Z,22.36
2016-07-16T07:46:51.703Z,22.34
2016-07-16T07:47:52.426Z,22.36
2016-07-16T07:48:51.752Z,22.39
2016-07-16T07:49:51.753Z,22.41
2016-07-16T07:50:51.742Z,22.27
2016-07-16T07:51:51.741Z,22.44
2016-07-16T07:52:51.782Z,22.38
2016-07-16T07:53:51.776Z,22.27
2016-07-16T07:54:51.793Z,22.44
2016-07-16T07:55:51.796Z,22.38
2016-07-16T07:56:51.788Z,22.34
2016-07-16T07:57:51.809Z,22.36
2016-07-16T07:58:51.905Z,22.33
2016-07-16T07:59:51.808Z,22.33
2016-07-16T08:00:51.812Z,22.39
2016-07-16T08:01:51.829Z,22.36
2016-07-16T08:02:51.845Z,22.45
2016-07-16T08:03:51.834Z,22.44
2016-07-16T08:04:51.860Z,22.39
2016-07-16T08:05:51.848Z,22.31
2016-07-16T08:06:51.859Z,22.34
2016-07-16T08:07:51.876Z,22.41
2016-07-16T08:08:51.896Z,22.41
2016-07-16T08:09:51.885Z,22.41
2016-07-16T08:10:51.928Z,22.39
2016-07-16T08:11:51.925Z,22.38
2016-07-16T08:12:51.936Z,22.36
2016-07-16T08:13:51.928Z,22.42
2016-07-16T08:14:51.931Z,22.42
2016-07-16T08:15:51.947Z,22.44
2016-07-16T08:16:51.967Z,22.41
2016-07-16T08:17:51.964Z,22.42
2016-07-16T08:18:51.967Z,22.45
2016-07-16T08:19:51.960Z,22.39
2016-07-16T08:20:51.995Z,22.54
2016-07-16T08:21:51.991Z,22.42
2016-07-16T08:22:52.010Z,22.45
2016-07-16T08:23:52.016Z,22.48
2016-07-16T08:24:52.015Z,22.45
2016-07-16T08:25:52.026Z,22.46
2016-07-16T08:26:52.042Z,22.45
2016-07-16T08:27:52.030Z,22.49
2016-07-16T08:28:52.050Z,22.51
2016-07-16T08:29:52.066Z,22.54
2016-07-16T08:30:52.078Z,22.55
2016-07-16T08:31:52.059Z,22.48
2016-07-16T08:32:52.060Z,22.55
2016-07-16T08:33:52.094Z,22.6
2016-07-16T08:34:52.092Z,22.55
2016-07-16T08:35:52.094Z,22.57
2016-07-16T08:36:52.098Z,22.59
2016-07-16T08:37:52.126Z,22.61
2016-07-16T08:38:52.144Z,22.6
2016-07-16T08:39:52.152Z,22.59
2016-07-16T08:40:52.153Z,22.55
2016-07-16T08:41:52.156Z,22.6
2016-07-16T08:42:52.177Z,22.57
2016-07-16T08:43:52.173Z,22.59
2016-07-16T08:44:52.172Z,22.57
2016-07-16T08:45:52.202Z,22.64
2016-07-16T08:46:52.192Z,22.66
2016-07-16T08:47:52.212Z,22.69
2016-07-16T08:48:52.222Z,22.67
2016-07-16T08:49:52.200Z,22.69
2016-07-16T08:50:52.232Z,22.7
2016-07-16T08:51:52.236Z,22.75
2016-07-16T08:52:52.228Z,22.66
2016-07-16T08:53:52.257Z,22.67
2016-07-16T08:54:52.250Z,22.81
2016-07-16T08:55:52.253Z,22.76
2016-07-16T08:56:52.280Z,22.71
2016-07-16T08:57:52.281Z,22.76
2016-07-16T08:58:52.356Z,22.75
2016-07-16T08:59:52.308Z,22.73
2016-07-16T09:00:52.311Z,22.76
2016-07-16T09:01:52.326Z,22.73
2016-07-16T09:02:52.332Z,22.76
2016-07-16T09:03:52.318Z,22.82
2016-07-16T09:04:52.344Z,22.85
2016-07-16T09:05:52.352Z,22.81
2016-07-16T09:06:52.337Z,22.84
2016-07-16T09:07:52.361Z,22.84
2016-07-16T09:08:52.362Z,22.84
2016-07-16T09:09:52.378Z,22.85
2016-07-16T09:10:52.390Z,22.76
2016-07-16T09:11:52.393Z,22.81
2016-07-16T09:12:52.386Z,22.84
2016-07-16T09:13:52.423Z,22.84
2016-07-16T09:14:52.426Z,22.82
2016-07-16T09:15:52.432Z,22.86
2016-07-16T09:16:52.432Z,22.85
2016-07-16T09:17:52.449Z,22.81
2016-07-16T09:18:52.463Z,22.86
2016-07-16T09:19:52.459Z,22.81
2016-07-16T09:20:52.457Z,22.85
2016-07-16T09:21:52.466Z,22.81
2016-07-16T09:22:52.489Z,22.79
2016-07-16T09:23:52.488Z,22.85
2016-07-16T09:24:52.499Z,22.88
2016-07-16T09:25:52.495Z,22.85
2016-07-16T09:26:52.509Z,22.81
2016-07-16T09:27:52.515Z,22.81
2016-07-16T09:28:52.542Z,22.86
2016-07-16T09:29:52.536Z,22.86
2016-07-16T09:30:52.543Z,22.82
2016-07-16T09:31:52.543Z,22.79
2016-07-16T09:32:52.554Z,22.82
2016-07-16T09:33:52.570Z,22.85
2016-07-16T09:34:52.583Z,22.82
2016-07-16T09:35:52.581Z,22.81
2016-07-16T09:36:52.615Z,22.85
2016-07-16T09:37:52.599Z,22.82
2016-07-16T09:38:52.625Z,22.84
2016-07-16T09:39:53.303Z,22.88
2016-07-16T09:40:52.648Z,22.86
2016-07-16T09:41:52.641Z,22.89
2016-07-16T09:42:52.642Z,22.97
2016-07-16T09:43:52.650Z,22.94
2016-07-16T09:44:52.666Z,22.89
2016-07-16T09:45:52.662Z,22.91
2016-07-16T09:46:52.687Z,22.92
2016-07-16T09:47:52.701Z,22.88
2016-07-16T09:48:52.687Z,22.89
2016-07-16T09:49:52.695Z,22.96
2016-07-16T09:50:52.705Z,22.81
2016-07-16T09:51:52.702Z,22.79
2016-07-16T09:52:52.735Z,22.81
2016-07-16T09:53:52.741Z,22.85
2016-07-16T09:54:52.726Z,22.81
2016-07-16T09:55:52.760Z,22.79
2016-07-16T09:56:52.766Z,22.85
2016-07-16T09:57:52.765Z,22.86
2016-07-16T09:58:52.782Z,22.85
2016-07-16T09:59:52.800Z,22.78
2016-07-16T10:00:52.801Z,22.85
2016-07-16T10:01:52.787Z,22.79
2016-07-16T10:02:52.808Z,22.81
2016-07-16T10:03:52.813Z,22.79
2016-07-16T10:04:52.818Z,22.81
2016-07-16T10:05:52.825Z,22.84
2016-07-16T10:06:52.851Z,22.85
2016-07-16T10:07:52.846Z,22.84
2016-07-16T10:08:52.866Z,22.91
2016-07-16T10:09:52.887Z,22.85
2016-07-16T10:10:52.877Z,22.88
2016-07-16T10:11:52.894Z,22.84
2016-07-16T10:12:52.882Z,22.82
2016-07-16T10:13:52.889Z,22.92
2016-07-16T10:14:52.884Z,22.91
2016-07-16T10:15:52.894Z,22.88
2016-07-16T10:16:52.933Z,22.94
2016-07-16T10:17:52.917Z,22.92
2016-07-16T10:18:52.956Z,23.04
2016-07-16T10:19:52.942Z,23.01
2016-07-16T10:20:52.949Z,23.01
2016-07-16T10:21:52.948Z,23.03
2016-07-16T10:22:52.952Z,23.06
2016-07-16T10:23:52.971Z,23.06
2016-07-16T10:24:52.993Z,23.09
2016-07-16T10:25:52.999Z,23.07
2016-07-16T10:26:53.017Z,23.1
2016-07-16T10:27:53.024Z,23.07
2016-07-16T10:28:53.022Z,23.09
2016-07-16T10:29:53.047Z,23.07
2016-07-16T10:30:53.023Z,23.12
2016-07-16T10:31:53.036Z,23.09
2016-07-16T10:32:53.062Z,23
2016-07-16T10:33:53.048Z,23.09
2016-07-16T10:34:53.069Z,23
2016-07-16T10:35:53.083Z,22.99
2016-07-16T10:36:53.071Z,23.04
2016-07-16T10:37:53.074Z,23
2016-07-16T10:38:53.084Z,23.03
2016-07-16T10:39:53.093Z,22.97
2016-07-16T10:40:53.129Z,23
2016-07-16T10:41:53.115Z,23.01
2016-07-16T10:42:53.107Z,23
2016-07-16T10:43:53.123Z,23.04
2016-07-16T10:44:53.159Z,23
2016-07-16T10:45:53.157Z,23.01
2016-07-16T10:46:53.151Z,23.06
2016-07-16T10:47:53.171Z,23.09
2016-07-16T10:48:53.176Z,23.07
2016-07-16T10:49:53.896Z,23.09
2016-07-16T10:50:53.193Z,23.16
2016-07-16T10:51:53.202Z,23.16
2016-07-16T10:52:53.200Z,23.28
2016-07-16T10:53:53.223Z,23.19
2016-07-16T10:54:53.216Z,23.24
2016-07-16T10:55:53.231Z,23.21
2016-07-16T10:56:53.930Z,23.18
2016-07-16T10:57:53.236Z,23.26
2016-07-16T10:58:53.260Z,23.18
2016-07-16T10:59:53.263Z,23.24
2016-07-16T11:00:53.277Z,23.21
2016-07-16T11:02:06.121Z,23.22
2016-07-16T11:03:06.436Z,23.22
2016-07-16T11:04:06.135Z,23.26
2016-07-16T11:05:06.129Z,23.28
2016-07-16T11:06:06.131Z,23.22
2016-07-16T11:07:06.162Z,23.28
2016-07-16T11:08:06.153Z,23.38
2016-07-16T11:09:06.166Z,23.34
2016-07-16T11:10:06.171Z,23.38
2016-07-16T11:11:06.168Z,23.41
2016-07-16T11:12:06.202Z,23.4
2016-07-16T11:13:06.213Z,23.42
2016-07-16T11:14:06.903Z,23.4
2016-07-16T11:15:06.215Z,23.4
2016-07-16T11:16:06.418Z,23.4
2016-07-16T11:17:06.247Z,23.38
2016-07-16T11:18:06.231Z,23.52
2016-07-16T11:19:06.435Z,23.56
2016-07-16T11:20:06.263Z,23.53
2016-07-16T11:21:06.246Z,23.5
2016-07-16T11:22:06.272Z,23.57
2016-07-16T11:23:06.302Z,23.47
2016-07-16T11:24:06.270Z,23.41
2016-07-16T11:25:06.298Z,23.38
2016-07-16T11:26:06.511Z,23.37
2016-07-16T11:27:06.300Z,23.41
2016-07-16T11:28:06.319Z,23.48
2016-07-16T11:29:06.333Z,23.52
2016-07-16T11:30:06.535Z,23.56
2016-07-16T11:31:06.326Z,23.56
2016-07-16T11:32:06.659Z,23.57
2016-07-16T11:33:06.361Z,23.67
2016-07-16T11:34:06.354Z,23.62
2016-07-16T11:35:06.546Z,23.66
2016-07-16T11:36:06.371Z,23.64
2016-07-16T11:37:06.399Z,23.6
2016-07-16T11:38:06.411Z,23.67
2016-07-16T11:39:06.401Z,23.71
2016-07-16T11:40:06.676Z,23.77
2016-07-16T11:41:06.745Z,23.71
2016-07-16T11:42:06.426Z,23.6
2016-07-16T11:43:06.442Z,23.72
2016-07-16T11:44:06.639Z,23.67
2016-07-16T11:45:06.480Z,23.67
2016-07-16T11:46:06.445Z,23.67
2016-07-16T11:47:06.482Z,23.6
2016-07-16T11:48:06.668Z,23.64
2016-07-16T11:49:06.476Z,23.64
2016-07-16T11:50:06.501Z,23.62
2016-07-16T11:51:06.515Z,23.67
2016-07-16T11:52:06.748Z,23.57
2016-07-16T11:53:06.538Z,23.53
2016-07-16T11:54:06.550Z,23.56
2016-07-16T11:55:06.779Z,23.47
2016-07-16T11:56:06.560Z,23.47
2016-07-16T11:57:07.269Z,23.48
2016-07-16T11:58:06.718Z,23.53
2016-07-16T11:59:06.565Z,23.5
2016-07-16T12:00:06.637Z,23.42
2016-07-16T12:01:06.584Z,23.45
2016-07-16T12:02:06.656Z,23.5
2016-07-16T12:03:06.631Z,23.53
2016-07-16T12:04:06.635Z,23.52
2016-07-16T12:05:06.619Z,23.5
2016-07-16T12:06:06.791Z,23.5
2016-07-16T12:07:06.800Z,23.37
2016-07-16T12:08:07.355Z,23.57
2016-07-16T12:09:06.675Z,23.5
2016-07-16T12:10:06.728Z,23.47
2016-07-16T12:11:06.723Z,23.53
2016-07-16T12:12:06.688Z,23.48
2016-07-16T12:13:06.702Z,23.47
2016-07-16T12:14:06.704Z,23.59
2016-07-16T12:15:06.698Z,23.52
2016-07-16T12:16:06.727Z,23.55
2016-07-16T12:17:06.781Z,23.57
2016-07-16T12:18:06.742Z,23.67
2016-07-16T12:19:06.731Z,23.74
2016-07-16T12:20:06.758Z,23.74
2016-07-16T12:21:06.948Z,23.82
2016-07-16T12:22:06.762Z,23.82
2016-07-16T12:23:06.822Z,23.82
2016-07-16T12:24:06.781Z,23.87
2016-07-16T12:25:06.773Z,23.85
2016-07-16T12:26:06.825Z,23.85
2016-07-16T12:27:06.836Z,23.85
2016-07-16T12:28:06.833Z,23.87
2016-07-16T12:29:06.828Z,23.87
2016-07-16T12:30:06.941Z,23.87
2016-07-16T12:31:06.854Z,23.89
2016-07-16T12:32:06.868Z,23.85
2016-07-16T12:33:06.865Z,23.82
2016-07-16T12:34:06.888Z,23.85
2016-07-16T12:35:06.941Z,23.87
2016-07-16T12:36:06.889Z,23.84
2016-07-16T12:37:06.883Z,23.79
2016-07-16T12:38:06.903Z,23.81
2016-07-16T12:39:06.899Z,23.79
2016-07-16T12:40:06.928Z,23.81
2016-07-16T12:41:06.910Z,23.78
2016-07-16T12:42:06.935Z,23.78
2016-07-16T12:43:06.962Z,23.75
2016-07-16T12:44:06.970Z,23.79
2016-07-16T12:45:06.946Z,23.85
2016-07-16T12:46:06.978Z,23.79
2016-07-16T12:47:06.985Z,23.79
2016-07-16T12:48:07.013Z,23.77
2016-07-16T12:49:06.998Z,23.74
2016-07-16T12:50:07.021Z,23.77
2016-07-16T12:51:07.024Z,23.78
2016-07-16T12:52:07.004Z,23.77
2016-07-16T12:53:07.048Z,23.78
2016-07-16T12:54:07.065Z,23.77
2016-07-16T12:55:07.048Z,23.78
2016-07-16T12:56:07.063Z,23.72